createdAt,value
2022-12-27T00:01:10.867Z,7.55
2022-12-27T00:11:11.190Z,6.56
2022-12-27T00:21:11.217Z,6.41
2022-12-27T00:31:11.631Z,7.40
2022-12-27T00:41:11.772Z,6.25
2022-12-27T00:51:11.823Z,6.25
2022-12-27T01:01:12.292Z,6.25
2022-12-27T01:11:13.338Z,6.25
2022-12-27T01:21:12.456Z,6.56
2022-12-27T01:31:12.640Z,6.56
2022-12-27T01:41:12.739Z,6.41
2022-12-27T01:51:13.038Z,6.41
2022-12-27T02:01:13.228Z,6.41
2022-12-27T02:11:13.412Z,5.63
2022-12-27T02:21:13.444Z,4.98
2022-12-27T02:31:13.827Z,4.48
2022-12-27T02:41:13.910Z,4.76
2022-12-27T02:51:14.271Z,4.58
2022-12-27T03:01:14.395Z,3.78
2022-12-27T03:11:14.619Z,4.39
2022-12-27T03:21:14.704Z,3.24
2022-12-27T03:31:15.071Z,4.39
2022-12-27T03:41:15.163Z,4.14
2022-12-27T03:51:15.417Z,4.31
2022-12-27T04:01:15.782Z,3.60
2022-12-27T04:11:15.886Z,4.31
2022-12-27T04:21:16.126Z,4.98
2022-12-27T04:31:16.436Z,3.50
2022-12-27T04:41:16.458Z,3.96
2022-12-27T04:51:16.789Z,3.24
2022-12-27T05:01:16.904Z,3.33
2022-12-27T05:11:16.936Z,3.16
2022-12-27T05:21:17.163Z,3.67
2022-12-27T05:31:17.444Z,4.00
2022-12-27T05:41:17.501Z,3.83
2022-12-27T05:51:17.793Z,4.00
2022-12-27T06:01:17.909Z,3.67
2022-12-27T06:11:18.055Z,2.63
2022-12-27T06:21:18.303Z,3.50
2022-12-27T06:31:19.621Z,4.00
2022-12-27T06:41:18.674Z,4.48
2022-12-27T06:51:19.017Z,4.16
2022-12-27T07:01:19.193Z,4.48
2022-12-27T07:11:19.191Z,4.95
2022-12-27T07:21:19.225Z,4.11
2022-12-27T07:31:19.933Z,4.95
2022-12-27T07:41:19.704Z,4.11
2022-12-27T07:51:20.013Z,4.27
2022-12-27T08:01:20.121Z,4.27
2022-12-27T08:11:20.290Z,5.26
2022-12-27T08:21:20.334Z,5.11
2022-12-27T08:31:20.673Z,5.26
2022-12-27T08:41:20.707Z,5.26
2022-12-27T08:51:31.671Z,4.64
2022-12-27T09:01:22.239Z,4.80
2022-12-27T09:11:21.322Z,4.95
2022-12-27T09:21:21.682Z,3.67
2022-12-27T09:31:21.733Z,4.32
2022-12-27T09:42:11.497Z,5.31
2022-12-27T09:51:23.097Z,4.98
2022-12-27T10:01:22.556Z,4.32
2022-12-27T10:11:22.433Z,5.47
2022-12-27T10:21:22.691Z,4.64
2022-12-27T10:31:22.973Z,4.64
2022-12-27T10:41:23.056Z,5.47
2022-12-27T10:51:23.285Z,5.47
2022-12-27T11:01:23.743Z,5.63
2022-12-27T11:11:23.620Z,5.63
2022-12-27T11:21:27.731Z,5.31
2022-12-27T11:31:24.055Z,5.31
2022-12-27T11:41:27.879Z,5.15
2022-12-27T11:51:24.544Z,5.15
2022-12-27T12:01:24.937Z,5.31
2022-12-27T12:11:24.981Z,4.98
2022-12-27T12:21:25.319Z,4.98
2022-12-27T12:31:26.266Z,4.98
2022-12-27T12:41:25.589Z,4.65
2022-12-27T12:51:25.690Z,5.29
2022-12-27T13:01:25.835Z,5.73
2022-12-27T13:11:25.953Z,5.18
2022-12-27T13:21:26.212Z,4.80
2022-12-27T13:31:26.439Z,4.42
2022-12-27T13:41:30.714Z,4.61
2022-12-27T13:51:26.931Z,4.80
2022-12-27T14:01:27.254Z,5.18
2022-12-27T14:11:27.340Z,5.18
2022-12-27T14:21:27.632Z,4.39
2022-12-27T14:31:27.715Z,4.39
2022-12-27T14:41:27.800Z,4.76
2022-12-27T15:01:29.317Z,5.11
2022-12-27T15:11:28.572Z,4.94
2022-12-27T15:21:28.614Z,4.76
2022-12-27T15:31:31.342Z,4.94
2022-12-27T15:41:29.001Z,4.48
2022-12-27T15:51:29.317Z,4.65
2022-12-27T16:01:29.536Z,5.31
2022-12-27T16:11:29.586Z,4.32
2022-12-27T16:21:29.644Z,4.48
2022-12-27T16:31:30.026Z,4.48
2022-12-27T16:41:30.098Z,4.32
2022-12-27T16:51:30.409Z,4.48
2022-12-27T17:01:30.527Z,4.48
2022-12-27T17:11:30.690Z,4.48
2022-12-27T17:21:30.990Z,4.32
2022-12-27T17:31:35.418Z,4.48
2022-12-27T17:41:31.251Z,3.81
2022-12-27T17:51:31.539Z,3.81
2022-12-27T18:01:31.675Z,3.81
2022-12-27T18:11:32.030Z,4.11
2022-12-27T18:21:31.943Z,4.11
2022-12-27T18:31:32.307Z,3.96
2022-12-27T18:41:32.359Z,3.96
2022-12-27T18:51:32.691Z,3.81
2022-12-27T19:01:33.154Z,3.50
2022-12-27T19:11:36.339Z,3.50
2022-12-27T19:21:33.332Z,3.34
2022-12-27T19:31:33.433Z,3.50
2022-12-27T19:41:33.516Z,2.82
2022-12-27T19:51:33.752Z,2.51
2022-12-27T20:01:33.709Z,2.66
2022-12-27T20:11:34.023Z,2.13
2022-12-27T20:21:34.051Z,2.13
2022-12-27T20:31:40.469Z,2.13
2022-12-27T20:41:35.470Z,2.13
2022-12-27T20:51:34.751Z,2.13
2022-12-27T21:01:34.843Z,2.13
2022-12-27T21:11:36.227Z,2.51
2022-12-27T21:21:35.420Z,2.03
2022-12-27T21:31:35.621Z,2.35
2022-12-27T21:41:35.666Z,2.66
2022-12-27T21:51:35.906Z,2.82
2022-12-27T22:01:50.352Z,2.66
2022-12-27T22:11:37.194Z,2.51
2022-12-27T22:21:36.543Z,2.35
2022-12-27T22:31:36.685Z,2.51
2022-12-27T22:41:39.994Z,2.51
2022-12-27T22:51:36.815Z,2.35
2022-12-27T23:01:37.145Z,2.51
2022-12-27T23:11:37.237Z,1.67
2022-12-27T23:21:37.537Z,1.83
2022-12-27T23:31:55.346Z,1.98
2022-12-27T23:41:38.644Z,2.35
2022-12-27T23:51:37.978Z,2.03
